Time;durP1;ratioP1;P1;durP2;ratioP2;P2;SDS_P1;SDS_P2;PMS_P1;PMS_P2;Temp;Humidity;BMP_temperature;BMP_pressure;BME280_temperature;BME280_humidity;BME280_pressure;Samples;Min_cycle;Max_cycle;Signal;HPM_P1;HPM_P2
2022/04/11 00:01:43;;;;;;;6.95;3.20;;;;;;;-1.27;90.46;99056.63;4190174;28;20040;-71
2022/04/11 00:03:44;;;;;;;4.88;2.55;;;;;;;-1.32;90.86;99061.31;4194920;28;20204;-71
2022/04/11 00:05:44;;;;;;;4.00;3.00;;;;;;;-1.23;91.88;99056.88;4194360;28;20083;-71
2022/04/11 00:07:44;;;;;;;4.15;2.83;;;;;;;-1.12;90.23;99058.38;4192653;28;20116;-71
2022/04/11 00:09:45;;;;;;;4.25;2.78;;;;;;;-1.04;88.53;99055.03;4195520;28;20482;-71
2022/04/11 00:11:46;;;;;;;5.18;2.53;;;;;;;-1.01;86.81;99061.78;4196106;28;20550;-71
2022/04/11 00:13:47;;;;;;;4.57;2.97;;;;;;;-1.04;88.26;99055.03;4194725;28;20332;-71
2022/04/11 00:15:47;;;;;;;4.80;2.63;;;;;;;-1.10;88.48;99053.47;4193507;28;20044;-71
2022/04/11 00:17:47;;;;;;;4.03;2.30;;;;;;;-1.13;88.48;99049.44;4185779;28;20476;-71
2022/04/11 00:19:48;;;;;;;5.22;2.42;;;;;;;-1.05;88.56;99049.91;4194077;28;20040;-71
2022/04/11 00:21:48;;;;;;;6.97;3.15;;;;;;;-1.03;86.94;99043.06;4188760;28;20070;-71
2022/04/11 00:23:48;;;;;;;4.55;2.72;;;;;;;-1.12;88.14;99039.38;4193202;28;20097;-71
2022/04/11 00:25:49;;;;;;;5.63;2.90;;;;;;;-1.13;87.94;99043.19;4200141;28;20039;-71
2022/04/11 00:27:49;;;;;;;16.40;6.97;;;;;;;-1.08;85.38;99040.41;4196770;28;20048;-71
2022/04/11 00:29:49;;;;;;;10.30;5.55;;;;;;;-1.23;86.94;99037.88;4196615;28;20500;-71
2022/04/11 00:31:50;;;;;;;10.63;5.55;;;;;;;-1.34;89.22;99042.56;4195069;28;20037;-71
2022/04/11 00:33:50;;;;;;;12.32;5.03;;;;;;;-1.45;88.72;99047.28;4195621;28;20079;-71
2022/04/11 00:35:50;;;;;;;6.38;4.20;;;;;;;-1.48;89.33;99042.44;4200734;28;20115;-71
2022/04/11 00:37:51;;;;;;;7.20;3.47;;;;;;;-1.48;89.24;99044.34;4194003;28;20044;-71
2022/04/11 00:39:51;;;;;;;6.80;3.08;;;;;;;-1.55;89.37;99041.97;4195717;28;20040;-73
2022/04/11 00:41:51;;;;;;;5.15;3.00;;;;;;;-1.62;89.90;99043.38;4197212;28;20425;-73
2022/04/11 00:43:51;;;;;;;5.03;2.90;;;;;;;-1.64;90.02;99042.84;4196901;28;20071;-72
2022/04/11 00:45:52;;;;;;;5.60;2.90;;;;;;;-1.65;90.30;99039.34;4196011;28;20051;-72
2022/04/11 00:47:52;;;;;;;4.22;2.70;;;;;;;-1.66;91.00;99037.69;4196719;28;20037;-72
2022/04/11 00:50:03;;;;;;;4.05;2.90;;;;;;;-1.60;91.71;99044.69;4195978;28;20095;-73
2022/04/11 00:52:04;;;;;;;5.75;2.85;;;;;;;-1.56;90.99;99034.91;4195829;28;20041;-73
2022/04/11 00:54:07;;;;;;;5.82;2.95;;;;;;;-1.57;88.77;99032.47;4192184;28;20365;-73
2022/04/11 00:56:11;;;;;;;10.57;5.80;;;;;;;-1.61;88.78;99040.38;4189692;28;20028;-73
2022/04/11 00:58:12;;;;;;;11.38;5.38;;;;;;;-1.68;89.96;99036.38;4192945;28;20062;-73
2022/04/11 01:00:13;;;;;;;7.43;4.25;;;;;;;-1.78;90.74;99046.22;4193570;28;20475;-71
2022/04/11 01:02:13;;;;;;;6.90;4.15;;;;;;;-1.92;91.85;99045.22;4195553;28;20062;-73
2022/04/11 01:04:23;;;;;;;8.80;4.13;;;;;;;-2.05;92.91;99040.44;4195819;28;20143;-73
2022/04/11 01:06:23;;;;;;;6.20;3.83;;;;;;;-2.07;95.40;99043.44;4194014;28;20082;-73
2022/04/11 01:08:24;;;;;;;8.27;4.03;;;;;;;-2.08;95.05;99044.53;4192554;28;20036;-72
2022/04/11 01:10:24;;;;;;;8.00;4.28;;;;;;;-2.10;95.14;99041.28;4194040;28;20551;-73
2022/04/11 01:12:26;;;;;;;8.95;4.03;;;;;;;-2.03;95.08;99044.50;4193074;28;20045;-73
2022/04/11 01:14:26;;;;;;;6.65;4.40;;;;;;;-2.01;92.74;99044.22;4196294;28;20376;-73
2022/04/11 01:16:28;;;;;;;6.40;3.70;;;;;;;-1.96;92.20;99046.09;4197574;28;20131;-73
2022/04/11 01:18:33;;;;;;;5.13;3.60;;;;;;;-1.92;91.63;99047.94;4197663;28;20051;-73
2022/04/11 01:20:33;;;;;;;9.10;4.32;;;;;;;-1.90;91.46;99036.78;4192963;28;20269;-73
2022/04/11 01:22:34;;;;;;;7.65;4.07;;;;;;;-1.90;91.59;99044.94;4196824;28;20052;-73
2022/04/11 01:24:36;;;;;;;7.40;3.97;;;;;;;-1.94;92.14;99050.13;4197156;28;20210;-73
2022/04/11 01:26:37;;;;;;;7.57;4.10;;;;;;;-1.91;90.71;99052.25;4197994;28;20032;-73
2022/04/11 01:28:40;;;;;;;7.45;3.97;;;;;;;-1.86;90.42;99054.94;4193126;28;20605;-73
2022/04/11 01:30:40;;;;;;;6.22;3.92;;;;;;;-1.85;90.29;99042.19;4198839;28;20464;-73
2022/04/11 01:32:42;;;;;;;5.20;3.67;;;;;;;-1.79;90.15;99039.16;4197060;28;20117;-73
2022/04/11 01:34:42;;;;;;;6.20;3.90;;;;;;;-1.74;89.35;99055.41;4191838;28;20113;-73
2022/04/11 01:36:42;;;;;;;6.28;3.90;;;;;;;-1.74;89.47;99046.44;4191047;28;20127;-73
2022/04/11 01:38:42;;;;;;;9.77;4.68;;;;;;;-1.75;90.56;99051.06;4195955;28;20036;-73
2022/04/11 01:40:50;;;;;;;7.50;4.30;;;;;;;-1.79;91.47;99046.50;4193496;28;20044;-73
2022/04/11 01:42:50;;;;;;;5.57;3.60;;;;;;;-1.84;91.20;99044.63;4193512;28;20123;-73
2022/04/11 01:44:51;;;;;;;9.82;4.70;;;;;;;-1.92;92.35;99049.84;4190876;28;20122;-73
2022/04/11 01:46:51;;;;;;;7.80;4.00;;;;;;;-1.90;92.18;99037.63;4196738;28;20445;-73
2022/04/11 01:48:52;;;;;;;11.27;5.57;;;;;;;-1.93;92.25;99046.31;4198828;28;20061;-72
2022/04/11 01:50:52;;;;;;;8.57;4.35;;;;;;;-1.95;92.57;99040.38;4195389;28;20075;-72
2022/04/11 01:52:53;;;;;;;7.82;4.68;;;;;;;-1.95;92.37;99047.69;4194517;28;20048;-72
2022/04/11 01:54:53;;;;;;;7.80;4.35;;;;;;;-1.97;91.60;99039.84;4195215;28;20129;-72
2022/04/11 01:56:53;;;;;;;5.97;3.97;;;;;;;-1.98;91.41;99043.66;4193650;28;20043;-72
2022/04/11 01:58:53;;;;;;;5.80;4.10;;;;;;;-2.04;91.44;99051.00;4195569;28;20056;-72
2022/04/11 02:00:55;;;;;;;7.00;4.05;;;;;;;-2.05;91.99;99043.97;4195173;28;20056;-72
2022/04/11 02:02:55;;;;;;;7.05;3.97;;;;;;;-2.07;91.37;99032.59;4193237;28;20098;-72
2022/04/11 02:04:55;;;;;;;7.95;4.35;;;;;;;-2.04;91.09;99045.59;4191854;28;20055;-72
2022/04/11 02:06:56;;;;;;;6.82;4.22;;;;;;;-2.04;89.90;99047.50;4195386;28;20044;-72
2022/04/11 02:08:56;;;;;;;6.20;4.38;;;;;;;-2.11;91.27;99044.28;4192714;28;20057;-72
2022/04/11 02:10:56;;;;;;;7.47;4.32;;;;;;;-2.15;92.46;99048.63;4193009;28;20040;-72
2022/04/11 02:12:58;;;;;;;8.02;4.35;;;;;;;-2.21;92.70;99041.66;4194562;28;20032;-72
2022/04/11 02:14:58;;;;;;;9.23;4.38;;;;;;;-2.28;92.49;99047.38;4196683;28;20391;-72
2022/04/11 02:16:58;;;;;;;5.95;4.20;;;;;;;-2.41;92.28;99040.66;4196737;28;20042;-72
2022/04/11 02:18:59;;;;;;;6.03;4.28;;;;;;;-2.49;93.51;99043.13;4197197;28;20064;-72
2022/04/11 02:20:59;;;;;;;5.85;4.03;;;;;;;-2.51;94.34;99037.19;4195236;28;20040;-72
2022/04/11 02:23:00;;;;;;;7.85;4.07;;;;;;;-2.53;93.26;99042.91;4195652;28;20040;-72
2022/04/11 02:25:00;;;;;;;8.02;4.38;;;;;;;-2.65;92.88;99040.53;4194001;28;20037;-72
2022/04/11 02:27:00;;;;;;;6.05;4.32;;;;;;;-2.68;94.81;99042.97;4194836;28;20373;-72
2022/04/11 02:29:01;;;;;;;10.38;4.53;;;;;;;-2.71;96.81;99043.53;4198935;28;20055;-72
2022/04/11 02:31:01;;;;;;;9.15;4.85;;;;;;;-2.77;96.11;99040.03;4193420;28;20067;-72
2022/04/11 02:33:02;;;;;;;8.27;4.18;;;;;;;-2.73;95.04;99032.13;4200637;28;20071;-72
2022/04/11 02:35:03;;;;;;;7.18;4.68;;;;;;;-2.71;94.39;99030.78;4195516;28;20052;-72
2022/04/11 02:37:04;;;;;;;10.18;4.80;;;;;;;-2.71;95.53;99028.09;4196274;28;20529;-72
2022/04/11 02:39:04;;;;;;;8.13;5.00;;;;;;;-2.67;96.55;99034.56;4197777;28;20056;-72
2022/04/11 02:41:04;;;;;;;7.95;4.57;;;;;;;-2.63;94.39;99021.28;4189792;28;20414;-72
2022/04/11 02:43:05;;;;;;;8.23;4.40;;;;;;;-2.66;94.06;99022.63;4189672;28;20402;-72
2022/04/11 02:45:06;;;;;;;6.00;4.40;;;;;;;-2.68;93.88;99027.50;4192399;28;20051;-72
2022/04/11 02:47:06;;;;;;;7.53;5.03;;;;;;;-2.70;93.83;99021.56;4194089;28;20542;-72
2022/04/11 02:49:07;;;;;;;9.27;4.50;;;;;;;-2.71;92.70;99025.38;4195903;28;20393;-72
2022/04/11 02:51:07;;;;;;;7.47;4.45;;;;;;;-2.75;92.91;99024.28;4196324;28;20036;-72
2022/04/11 02:53:07;;;;;;;9.98;4.28;;;;;;;-2.83;92.99;99025.69;4194381;28;20055;-72
2022/04/11 02:55:08;;;;;;;7.35;4.95;;;;;;;-2.85;94.36;99021.63;4194349;28;20563;-72
2022/04/11 02:57:08;;;;;;;8.10;4.38;;;;;;;-2.85;94.62;99025.16;4195089;28;20048;-72
2022/04/11 02:59:09;;;;;;;6.85;4.40;;;;;;;-2.86;95.17;99025.44;4196920;28;20078;-72
2022/04/11 03:01:09;;;;;;;6.45;4.00;;;;;;;-2.82;93.85;99026.47;4198184;28;20364;-72
2022/04/11 03:03:10;;;;;;;5.55;4.22;;;;;;;-2.83;93.87;99022.16;4194722;28;20050;-72
2022/04/11 03:05:10;;;;;;;8.23;4.22;;;;;;;-2.85;92.69;99019.72;4194479;28;20322;-72
2022/04/11 03:07:11;;;;;;;8.02;4.55;;;;;;;-2.88;93.06;99012.19;4199560;28;20046;-72
2022/04/11 03:09:12;;;;;;;7.65;4.53;;;;;;;-2.89;92.60;99012.47;4193928;28;20147;-72
2022/04/11 03:11:12;;;;;;;7.72;4.50;;;;;;;-2.89;92.97;99024.09;4194504;28;20102;-72
2022/04/11 03:13:12;;;;;;;7.57;4.20;;;;;;;-2.90;93.05;99022.44;4195396;28;20048;-72
2022/04/11 03:15:13;;;;;;;7.07;4.72;;;;;;;-2.94;92.35;99026.81;4194100;28;20484;-72
2022/04/11 03:17:13;;;;;;;10.02;4.47;;;;;;;-2.95;92.94;99018.97;4194779;28;20071;-72
2022/04/11 03:19:13;;;;;;;7.35;3.97;;;;;;;-2.98;92.72;99020.34;4193703;28;20123;-72
2022/04/11 03:21:14;;;;;;;8.50;4.47;;;;;;;-2.94;93.83;99017.88;4195245;28;20040;-72
2022/04/11 03:23:15;;;;;;;8.73;4.55;;;;;;;-2.98;93.07;99020.34;4196207;28;20040;-72
2022/04/11 03:25:16;;;;;;;7.05;4.28;;;;;;;-2.95;93.20;99024.38;4190151;28;20067;-72
2022/04/11 03:27:16;;;;;;;8.73;3.78;;;;;;;-2.98;93.26;99019.50;4194416;28;20071;-72
2022/04/11 03:29:17;;;;;;;9.23;4.25;;;;;;;-2.98;93.13;99024.91;4194111;28;20052;-72
2022/04/11 03:31:17;;;;;;;6.93;4.32;;;;;;;-3.01;92.13;99011.94;4194529;28;20051;-72
2022/04/11 03:33:18;;;;;;;6.85;3.80;;;;;;;-3.06;93.18;99014.66;4193176;28;20052;-72
2022/04/11 03:35:18;;;;;;;6.28;4.10;;;;;;;-3.11;93.61;99010.91;4194950;28;20080;-72
2022/04/11 03:37:19;;;;;;;6.50;4.10;;;;;;;-3.13;94.41;99013.06;4190388;28;20191;-72
2022/04/11 03:39:19;;;;;;;5.35;3.60;;;;;;;-3.15;94.21;99009.00;4191559;28;20562;-72
2022/04/11 03:41:20;;;;;;;7.10;3.88;;;;;;;-3.14;94.21;99002.53;4200022;28;20047;-72
2022/04/11 03:43:20;;;;;;;7.82;4.22;;;;;;;-3.15;93.66;99011.72;4193860;28;20465;-72
2022/04/11 03:45:20;;;;;;;5.38;3.75;;;;;;;-3.16;94.15;99008.19;4195436;28;20124;-72
2022/04/11 03:47:21;;;;;;;6.38;3.92;;;;;;;-3.09;93.13;99009.81;4193022;28;20044;-72
2022/04/11 03:49:21;;;;;;;6.38;3.97;;;;;;;-3.11;93.33;99013.59;4193911;28;20133;-72
2022/04/11 03:51:22;;;;;;;6.63;3.97;;;;;;;-3.11;95.00;99010.09;4195486;28;20059;-72
2022/04/11 03:53:22;;;;;;;6.43;3.70;;;;;;;-3.14;94.56;99002.53;4196747;28;20434;-73
2022/04/11 03:55:23;;;;;;;5.90;3.97;;;;;;;-3.14;93.48;99000.63;4195272;28;20074;-72
2022/04/11 03:57:24;;;;;;;6.40;3.70;;;;;;;-3.08;92.77;99003.31;4190335;28;20090;-72
2022/04/11 03:59:24;;;;;;;5.88;3.97;;;;;;;-3.09;92.05;99007.09;4194901;28;20125;-72
2022/04/11 04:01:25;;;;;;;6.13;3.78;;;;;;;-3.09;91.87;98998.97;4193617;28;20531;-72
2022/04/11 04:03:26;;;;;;;5.80;3.22;;;;;;;-3.10;92.27;99000.88;4197445;28;20097;-72
2022/04/11 04:05:26;;;;;;;7.03;3.50;;;;;;;-3.09;92.96;98999.78;4200452;28;20143;-72
2022/04/11 04:07:26;;;;;;;6.32;3.80;;;;;;;-3.11;93.89;98999.25;4199369;28;20051;-72
2022/04/11 04:09:26;;;;;;;4.68;3.47;;;;;;;-3.15;92.41;98998.97;4197680;28;20544;-72
2022/04/11 04:11:27;;;;;;;7.95;3.30;;;;;;;-3.16;92.53;99001.97;4195925;28;20131;-72
2022/04/11 04:13:27;;;;;;;8.52;3.55;;;;;;;-3.21;90.94;99000.09;4194578;28;20047;-72
2022/04/11 04:15:27;;;;;;;3.80;3.00;;;;;;;-3.30;91.40;98999.06;4202284;28;20048;-72
2022/04/11 04:17:28;;;;;;;5.30;3.53;;;;;;;-3.32;95.26;98989.56;4196588;28;20520;-72
2022/04/11 04:19:28;;;;;;;5.63;3.17;;;;;;;-3.33;95.11;98993.38;4196665;28;20068;-72
2022/04/11 04:21:28;;;;;;;3.65;2.80;;;;;;;-3.40;94.36;98996.34;4196714;28;20084;-72
2022/04/11 04:23:29;;;;;;;5.32;3.22;;;;;;;-3.51;94.70;98984.75;4198448;28;20506;-73
2022/04/11 04:25:29;;;;;;;5.32;3.67;;;;;;;-3.52;96.45;98990.44;4198786;28;20090;-72
2022/04/11 04:27:30;;;;;;;5.57;3.70;;;;;;;-3.50;97.29;98991.78;4198121;28;20417;-72
2022/04/11 04:29:30;;;;;;;6.35;3.67;;;;;;;-3.47;96.71;98983.13;4196442;28;20067;-72
2022/04/11 04:31:31;;;;;;;8.38;3.80;;;;;;;-3.44;95.75;98985.28;4197117;28;20149;-72
2022/04/11 04:33:32;;;;;;;4.70;3.75;;;;;;;-3.40;96.59;98991.75;4193146;28;20461;-72
2022/04/11 04:35:32;;;;;;;12.57;4.85;;;;;;;-3.42;95.89;98988.50;4195798;28;20068;-72
2022/04/11 04:37:33;;;;;;;5.93;3.45;;;;;;;-3.39;96.46;98992.59;4196937;28;20122;-72
2022/04/11 04:39:33;;;;;;;5.88;3.70;;;;;;;-3.35;95.08;98990.13;4200137;28;20070;-72
2022/04/11 04:41:33;;;;;;;4.93;3.85;;;;;;;-3.30;95.21;99003.66;4194125;28;20524;-72
2022/04/11 04:43:34;;;;;;;6.60;4.05;;;;;;;-3.33;94.91;98996.88;4197443;28;20447;-72
2022/04/11 04:45:35;;;;;;;6.18;3.92;;;;;;;-3.30;94.22;98990.13;4195839;28;20047;-72
2022/04/11 04:47:36;;;;;;;7.78;4.20;;;;;;;-3.32;94.44;98990.38;4193123;28;20037;-72
2022/04/11 04:49:36;;;;;;;10.38;4.25;;;;;;;-3.33;93.90;98991.47;4200807;28;20055;-72
2022/04/11 04:51:36;;;;;;;6.63;4.20;;;;;;;-3.29;94.99;98989.84;4197185;28;20033;-72
2022/04/11 04:53:37;;;;;;;6.00;3.85;;;;;;;-3.29;94.49;98991.75;4199725;28;20447;-72
2022/04/11 04:55:37;;;;;;;5.00;3.65;;;;;;;-3.30;94.01;98987.41;4194007;28;20053;-72
2022/04/11 04:57:38;;;;;;;6.03;3.88;;;;;;;-3.29;95.44;98997.97;4195940;28;20387;-72
2022/04/11 04:59:38;;;;;;;9.90;4.25;;;;;;;-3.28;95.38;98982.53;4196241;28;20498;-72
2022/04/11 05:01:38;;;;;;;6.75;3.92;;;;;;;-3.26;95.10;98985.78;4195579;28;20395;-72
2022/04/11 05:03:39;;;;;;;5.85;3.85;;;;;;;-3.20;95.07;98987.38;4200017;28;20066;-72
2022/04/11 05:05:39;;;;;;;5.75;4.10;;;;;;;-3.16;95.04;98993.84;4198284;28;20094;-72
2022/04/11 05:07:39;;;;;;;5.88;3.97;;;;;;;-3.14;95.23;98980.88;4196021;28;20040;-72
2022/04/11 05:09:40;;;;;;;7.03;4.15;;;;;;;-3.10;94.47;98979.22;4196279;28;20139;-72
2022/04/11 05:11:40;;;;;;;9.65;4.35;;;;;;;-3.03;95.26;98987.88;4191143;28;20056;-72
2022/04/11 05:13:40;;;;;;;8.27;3.97;;;;;;;-3.00;95.59;98981.06;4198508;28;20040;-72
2022/04/11 05:15:42;;;;;;;7.15;3.83;;;;;;;-2.98;95.16;98982.44;4196903;28;20052;-72
2022/04/11 05:17:42;;;;;;;8.68;4.45;;;;;;;-2.94;95.41;98988.91;4197159;28;20380;-72
2022/04/11 05:19:43;;;;;;;7.38;3.67;;;;;;;-2.90;94.97;98987.25;4199164;28;20783;-72
2022/04/11 05:21:43;;;;;;;5.30;3.78;;;;;;;-2.85;94.25;98995.34;4190436;28;20316;-72
2022/04/11 05:23:43;;;;;;;8.52;3.65;;;;;;;-2.79;94.21;99000.75;4194796;28;20039;-72
2022/04/11 05:25:44;;;;;;;6.85;3.90;;;;;;;-2.75;94.96;99005.34;4135306;28;20331;-72
2022/04/11 05:27:44;;;;;;;7.05;3.85;;;;;;;-2.76;95.00;98997.50;4193434;28;20153;-73
2022/04/11 05:29:44;;;;;;;7.20;3.65;;;;;;;-2.72;95.37;99004.00;4197612;28;20075;-72
2022/04/11 05:31:44;;;;;;;9.80;5.05;;;;;;;-2.70;96.12;99001.81;4197176;28;20086;-72
2022/04/11 05:33:45;;;;;;;15.15;6.43;;;;;;;-2.69;97.47;99003.41;4197336;28;20171;-72
2022/04/11 05:35:47;;;;;;;12.63;7.47;;;;;;;-2.66;97.97;99010.97;4196234;28;20045;-72
2022/04/11 05:37:47;;;;;;;13.18;7.85;;;;;;;-2.64;98.65;99011.53;4199825;28;20392;-72
2022/04/11 05:39:48;;;;;;;13.43;7.10;;;;;;;-2.62;97.74;99014.78;4197256;28;20041;-72
2022/04/11 05:41:48;;;;;;;18.25;9.30;;;;;;;-2.55;98.13;99009.84;4194817;28;20048;-72
2022/04/11 05:43:48;;;;;;;20.05;11.73;;;;;;;-2.49;98.01;99016.03;4197941;28;20048;-72
2022/04/11 05:45:49;;;;;;;24.70;13.88;;;;;;;-2.43;97.39;99020.34;4195683;28;20045;-73
2022/04/11 05:47:49;;;;;;;24.98;17.67;;;;;;;-2.37;97.21;99019.25;4196920;28;20500;-72
2022/04/11 05:49:49;;;;;;;14.18;9.45;;;;;;;-2.32;97.60;99019.19;4195527;28;20772;-72
2022/04/11 05:51:50;;;;;;;5.13;3.70;;;;;;;-2.27;97.32;99019.16;4195173;28;20086;-72
2022/04/11 05:53:50;;;;;;;4.38;2.70;;;;;;;-2.17;97.32;99023.72;4196440;28;20101;-72
2022/04/11 05:55:51;;;;;;;3.63;2.83;;;;;;;-2.09;96.83;99021.22;4193863;28;20052;-72
2022/04/11 05:57:51;;;;;;;4.50;3.03;;;;;;;-2.01;96.60;99036.06;4192047;28;20041;-72
2022/04/11 05:59:51;;;;;;;8.27;2.95;;;;;;;-1.98;96.25;99033.63;4197025;28;20485;-72
2022/04/11 06:01:52;;;;;;;8.77;3.45;;;;;;;-1.92;95.78;99022.72;4193782;28;20037;-72
2022/04/11 06:03:52;;;;;;;4.72;3.05;;;;;;;-1.90;95.92;99024.06;4196790;28;20506;-72
2022/04/11 06:05:53;;;;;;;6.15;3.30;;;;;;;-1.84;95.17;99031.06;4194844;28;20048;-72
2022/04/11 06:07:53;;;;;;;5.72;3.53;;;;;;;-1.77;94.70;99025.31;4196134;28;20043;-72
2022/04/11 06:09:54;;;;;;;3.95;3.10;;;;;;;-1.71;94.89;99033.13;4195088;28;20072;-72
2022/04/11 06:11:54;;;;;;;8.63;3.30;;;;;;;-1.62;92.49;99018.97;4190956;28;20044;-72
2022/04/11 06:13:54;;;;;;;4.82;3.25;;;;;;;-1.55;92.00;99025.69;4196506;28;20182;-72
2022/04/11 06:15:55;;;;;;;5.22;2.80;;;;;;;-1.47;92.07;99026.97;4193711;28;20796;-72
2022/04/11 06:17:56;;;;;;;3.83;2.80;;;;;;;-1.39;91.41;99034.50;4195380;28;20040;-72
2022/04/11 06:19:58;;;;;;;3.58;2.67;;;;;;;-1.32;92.01;99039.59;4194695;28;20094;-72
2022/04/11 06:21:59;;;;;;;;;;;;;;;-1.25;91.26;99034.59;4198001;28;20036;-72
2022/04/11 06:23:59;;;;;;;6.38;3.17;;;;;;;-1.20;90.51;99034.56;4190311;28;20376;-72
2022/04/11 06:26:00;;;;;;;4.75;2.85;;;;;;;-1.15;90.47;99037.25;4199332;28;20059;-72
2022/04/11 06:28:00;;;;;;;3.63;2.95;;;;;;;-1.10;89.63;99036.38;4193752;28;20038;-72
2022/04/11 06:30:01;;;;;;;5.28;2.88;;;;;;;-1.01;88.41;99040.88;4196132;28;20411;-72
2022/04/11 06:32:04;;;;;;;5.18;3.33;;;;;;;-0.94;87.48;99035.91;4196314;28;20024;-72
2022/04/11 06:34:04;;;;;;;4.13;2.60;;;;;;;-0.88;87.47;99033.94;4194939;28;20391;-72
2022/04/11 06:36:05;;;;;;;9.43;3.70;;;;;;;-0.79;87.44;99037.66;4192959;28;20108;-72
2022/04/11 06:38:06;;;;;;;5.22;3.28;;;;;;;-0.73;88.08;99027.53;4191847;28;20042;-72
2022/04/11 06:40:07;;;;;;;4.68;3.30;;;;;;;-0.66;87.45;99028.00;4199285;28;20039;-72
2022/04/11 06:42:07;;;;;;;6.40;3.10;;;;;;;-0.62;88.05;99029.00;4190812;28;20032;-72
2022/04/11 06:44:07;;;;;;;4.28;3.03;;;;;;;-0.58;89.20;99030.88;4193103;28;20043;-72
2022/04/11 06:46:08;;;;;;;4.05;2.55;;;;;;;-0.54;89.30;99020.22;4201548;28;20032;-72
2022/04/11 06:48:09;;;;;;;3.45;2.92;;;;;;;-0.52;89.16;99015.28;4193952;28;20532;-72
2022/04/11 06:50:10;;;;;;;7.78;3.40;;;;;;;-0.48;88.75;99020.97;4195090;28;20464;-72
2022/04/11 06:52:10;;;;;;;4.32;2.78;;;;;;;-0.44;88.53;99022.78;4195087;28;20414;-73
2022/04/11 06:54:10;;;;;;;5.75;3.25;;;;;;;-0.43;89.09;99018.16;4197685;28;20028;-72
2022/04/11 06:56:11;;;;;;;6.53;3.63;;;;;;;-0.41;88.42;99011.34;4189564;28;20115;-72
2022/04/11 06:58:11;;;;;;;6.40;2.95;;;;;;;-0.37;87.72;99017.00;4194126;28;20480;-72
2022/04/11 07:00:11;;;;;;;3.85;2.85;;;;;;;-0.35;88.39;99015.59;4198374;28;20543;-72
2022/04/11 07:02:12;;;;;;;5.40;3.35;;;;;;;-0.29;88.82;99013.63;4194259;28;20365;-72
2022/04/11 07:04:12;;;;;;;7.78;3.85;;;;;;;-0.23;88.93;99009.72;4189489;28;20036;-72
2022/04/11 07:06:13;;;;;;;8.18;3.70;;;;;;;-0.11;88.03;99014.72;4196441;28;20479;-72
2022/04/11 07:08:13;;;;;;;4.30;3.25;;;;;;;-0.04;87.18;99020.59;4195572;28;20122;-72
2022/04/11 07:10:13;;;;;;;5.68;3.15;;;;;;;0.02;86.90;99007.75;4191311;28;20029;-72
2022/04/11 07:12:14;;;;;;;5.95;3.05;;;;;;;0.11;87.64;99016.84;4194501;28;20032;-72
2022/04/11 07:14:14;;;;;;;10.13;3.55;;;;;;;0.15;89.78;99017.84;4194428;28;20051;-72
2022/04/11 07:16:15;;;;;;;5.95;3.55;;;;;;;0.17;90.21;99016.47;4196394;28;20525;-72
2022/04/11 07:18:15;;;;;;;5.65;3.50;;;;;;;0.21;91.00;99014.75;4191416;28;20036;-72
2022/04/11 07:20:15;;;;;;;9.43;3.67;;;;;;;0.25;90.03;99010.34;4188815;28;20207;-72
2022/04/11 07:22:21;;;;;;;8.68;3.75;;;;;;;0.30;90.28;99012.16;4196287;28;20462;-72
2022/04/11 07:24:21;;;;;;;4.28;3.53;;;;;;;0.36;90.24;99004.72;4192908;28;20087;-72
2022/04/11 07:26:21;;;;;;;8.27;3.80;;;;;;;0.44;89.62;99012.22;4196058;28;20039;-72
2022/04/11 07:28:22;;;;;;;12.43;4.30;;;;;;;0.56;91.75;99013.34;4193958;28;20271;-72
2022/04/11 07:30:22;;;;;;;10.90;4.30;;;;;;;0.69;92.48;99010.97;4194668;28;20056;-72
2022/04/11 07:32:23;;;;;;;4.75;3.40;;;;;;;0.77;92.43;99007.53;4193928;28;20054;-73
2022/04/11 07:34:23;;;;;;;4.75;3.20;;;;;;;0.83;91.67;99000.91;4194098;28;20044;-72
2022/04/11 07:36:24;;;;;;;10.25;3.78;;;;;;;0.90;90.80;98998.56;4188769;28;20127;-72
2022/04/11 07:38:24;;;;;;;8.18;3.72;;;;;;;0.98;90.86;99002.50;4193448;28;20144;-72
2022/04/11 07:40:25;;;;;;;8.32;3.65;;;;;;;1.06;90.60;99005.34;4196011;28;20103;-72
2022/04/11 07:42:25;;;;;;;10.75;4.80;;;;;;;1.15;90.54;99004.63;4190983;28;20434;-72
2022/04/11 07:44:27;;;;;;;7.82;3.75;;;;;;;1.23;88.96;99010.19;4194628;28;20048;-72
2022/04/11 07:46:27;;;;;;;6.15;3.97;;;;;;;1.32;85.42;99000.16;4193728;28;20045;-72
2022/04/11 07:48:27;;;;;;;9.80;4.18;;;;;;;1.42;86.87;98987.47;4192885;28;20590;-72
2022/04/11 07:50:28;;;;;;;5.70;4.22;;;;;;;1.51;87.01;98991.09;4190630;28;20040;-72
2022/04/11 07:52:28;;;;;;;9.52;4.60;;;;;;;1.63;86.88;98996.81;4195965;28;20049;-72
2022/04/11 07:54:29;;;;;;;5.22;3.95;;;;;;;1.69;86.53;98990.94;4198867;28;20071;-72
2022/04/11 07:56:29;;;;;;;12.52;4.38;;;;;;;1.79;87.16;98991.81;4190014;28;20037;-72
2022/04/11 07:58:29;;;;;;;11.65;6.13;;;;;;;1.94;86.73;98994.19;4196373;28;20386;-72
2022/04/11 08:00:30;;;;;;;6.38;4.60;;;;;;;2.08;86.07;98994.16;4196144;28;20032;-72
2022/04/11 08:02:30;;;;;;;8.25;4.35;;;;;;;2.16;86.28;98986.03;4195261;28;20577;-72
2022/04/11 08:04:31;;;;;;;10.90;5.53;;;;;;;2.23;86.01;98991.88;4195895;28;20069;-72
2022/04/11 08:06:31;;;;;;;13.60;7.50;;;;;;;2.34;85.43;98977.94;4195113;28;20143;-72
2022/04/11 08:08:32;;;;;;;12.95;5.50;;;;;;;2.44;86.29;98978.50;4193313;28;20115;-72
2022/04/11 08:10:33;;;;;;;9.95;4.85;;;;;;;2.57;85.88;98982.28;4189209;28;20056;-72
2022/04/11 08:12:34;;;;;;;10.63;5.25;;;;;;;2.68;85.83;98969.94;4195469;28;20056;-72
2022/04/11 08:14:34;;;;;;;12.30;7.00;;;;;;;2.78;85.92;98964.19;4194803;28;20422;-72
2022/04/11 08:16:35;;;;;;;13.15;6.82;;;;;;;2.92;86.05;98966.84;4190140;28;20350;-71
2022/04/11 08:18:35;;;;;;;8.35;5.57;;;;;;;3.02;85.57;98963.00;4192458;28;20072;-71
2022/04/11 08:20:35;;;;;;;13.05;8.43;;;;;;;3.14;84.51;98970.59;4193964;28;20076;-72
2022/04/11 08:22:36;;;;;;;15.98;8.52;;;;;;;3.23;83.79;98964.06;4192527;28;20474;-72
2022/04/11 08:24:36;;;;;;;7.45;4.45;;;;;;;3.38;82.10;98962.78;4194205;28;20117;-72
2022/04/11 08:26:36;;;;;;;8.30;5.20;;;;;;;3.47;81.90;98962.81;4193207;28;20063;-72
2022/04/11 08:28:37;;;;;;;6.70;4.75;;;;;;;3.56;81.29;98960.91;4201968;28;20136;-72
2022/04/11 08:30:37;;;;;;;11.70;6.32;;;;;;;3.67;80.51;98960.25;4196055;28;20414;-72
2022/04/11 08:32:46;;;;;;;7.50;4.97;;;;;;;3.82;78.30;98964.47;4192251;28;20221;-72
2022/04/11 08:34:46;;;;;;;16.20;9.48;;;;;;;3.99;74.26;98960.13;4193545;28;20044;-72
2022/04/11 08:36:46;;;;;;;10.00;5.45;;;;;;;4.19;72.50;98967.66;4192473;28;20055;-72
2022/04/11 08:38:47;;;;;;;9.55;4.75;;;;;;;4.30;71.48;98965.38;4196319;28;20052;-72
2022/04/11 08:40:49;;;;;;;4.38;3.22;;;;;;;4.39;71.47;98966.19;4191400;28;20036;-72
2022/04/11 08:42:51;;;;;;;6.35;3.53;;;;;;;4.45;71.98;98964.88;4193597;28;20049;-72
2022/04/11 08:44:57;;;;;;;6.47;3.05;;;;;;;4.52;71.09;98965.19;4193510;28;20435;-71
2022/04/11 08:47:03;;;;;;;4.28;3.10;;;;;;;4.65;71.19;98966.13;4196070;28;20044;-71
2022/04/11 08:49:06;;;;;;;5.53;3.05;;;;;;;4.78;70.14;98970.59;4194188;28;20204;-71
2022/04/11 08:51:06;;;;;;;4.38;2.80;;;;;;;4.88;69.77;98964.78;4192903;28;20618;-71
2022/04/11 08:53:07;;;;;;;7.00;3.08;;;;;;;4.93;69.62;98966.50;4192692;28;20075;-71
2022/04/11 08:55:08;;;;;;;5.78;2.40;;;;;;;5.02;67.05;98968.09;4198639;28;20040;-71
2022/04/11 08:57:09;;;;;;;5.10;2.40;;;;;;;5.21;63.27;98964.94;4190964;28;20739;-71
2022/04/11 08:59:09;;;;;;;2.47;1.98;;;;;;;5.28;61.86;98956.97;4195659;28;20410;-72
2022/04/11 09:01:09;;;;;;;8.77;4.00;;;;;;;5.49;62.30;98954.28;4196311;28;20528;-71
2022/04/11 09:03:10;;;;;;;3.30;2.20;;;;;;;5.65;60.26;98957.25;4193300;28;20483;-71
2022/04/11 09:05:19;;;;;;;3.45;2.20;;;;;;;5.81;59.30;98960.22;4197605;28;20453;-71
2022/04/11 09:07:19;;;;;;;3.60;2.58;;;;;;;5.85;62.24;98952.88;4197272;28;20142;-71
2022/04/11 09:09:36;;;;;;;4.45;2.00;;;;;;;5.89;59.30;98957.41;4199269;28;20044;-71
2022/04/11 09:11:38;;;;;;;3.03;1.90;;;;;;;5.89;61.90;98948.34;4191598;28;20365;-71
2022/04/11 09:13:51;;;;;;;3.10;2.45;;;;;;;5.94;62.68;98959.16;4192972;28;20033;-72
2022/04/11 09:15:54;;;;;;;7.45;3.20;;;;;;;6.02;57.82;98951.97;4195549;28;20052;-71
2022/04/11 09:17:57;;;;;;;5.00;2.92;;;;;;;6.01;60.72;98956.66;4192753;28;20426;-71
2022/04/11 09:20:07;;;;;;;;;;;;;;;6.08;58.60;98958.88;4195776;28;20383;-70
2022/04/11 09:22:08;;;;;;;10.32;4.43;;;;;;;6.17;57.69;98948.63;4195389;28;19916;-72
2022/04/11 09:24:19;;;;;;;4.43;2.80;;;;;;;6.24;56.57;98950.81;4196538;28;20337;-71
2022/04/11 09:26:22;;;;;;;4.18;2.42;;;;;;;6.34;55.01;98942.16;4192650;28;20077;-71
2022/04/11 09:28:22;;;;;;;2.33;1.75;;;;;;;6.42;56.41;98953.06;4193020;28;20478;-71
2022/04/11 09:30:31;;;;;;;5.22;3.00;;;;;;;6.47;57.80;98954.81;4196190;28;20263;-71